createdAt,value
2019-06-07T00:02:08.396Z,3.47
2019-06-07T00:04:36.080Z,3.13
2019-06-07T00:07:03.797Z,5.70
2019-06-07T00:09:31.482Z,2.90
2019-06-07T00:11:59.189Z,2.83
2019-06-07T00:14:26.897Z,2.67
2019-06-07T00:16:54.693Z,6.47
2019-06-07T00:19:22.387Z,6.17
2019-06-07T00:22:15.718Z,3.10
2019-06-07T00:24:22.022Z,5.63
2019-06-07T00:26:58.424Z,6.83
2019-06-07T00:29:21.603Z,6.50
2019-06-07T00:31:48.622Z,3.70
2019-06-07T00:34:17.161Z,7.60
2019-06-07T00:36:45.862Z,5.53
2019-06-07T00:39:18.190Z,4.80
2019-06-07T00:41:43.052Z,2.93
2019-06-07T00:44:10.753Z,5.03
2019-06-07T00:46:38.465Z,5.07
2019-06-07T00:49:06.162Z,7.30
2019-06-07T00:51:49.520Z,6.10
2019-06-07T00:54:03.362Z,7.43
2019-06-07T00:56:31.241Z,6.30
2019-06-07T00:59:10.791Z,4.53
2019-06-07T01:01:28.425Z,6.70
2019-06-07T01:03:56.126Z,4.00
2019-06-07T01:06:24.974Z,3.77
2019-06-07T01:08:52.810Z,4.20
2019-06-07T01:11:23.157Z,4.90
2019-06-07T01:13:49.994Z,5.17
2019-06-07T01:16:18.780Z,5.60
2019-06-07T01:18:51.205Z,7.07
2019-06-07T01:21:21.700Z,5.03
2019-06-07T01:24:08.240Z,6.60
2019-06-07T01:26:20.562Z,4.20
2019-06-07T01:28:47.156Z,6.90
2019-06-07T01:31:17.007Z,10.40
2019-06-07T01:33:50.800Z,8.83
2019-06-07T01:36:13.832Z,2.67
2019-06-07T01:38:41.532Z,7.07
2019-06-07T01:41:09.641Z,4.47
2019-06-07T01:43:37.333Z,5.07
2019-06-07T01:46:05.029Z,4.20
2019-06-07T01:48:48.571Z,3.50
2019-06-07T01:51:02.236Z,5.07
2019-06-07T01:53:31.617Z,5.07
2019-06-07T01:55:59.332Z,2.93
2019-06-07T01:58:29.115Z,5.20
2019-06-07T02:00:56.607Z,5.97
2019-06-07T02:03:26.924Z,8.40
2019-06-07T02:05:53.809Z,4.70
2019-06-07T02:08:22.192Z,2.80
2019-06-07T02:10:50.982Z,4.50
2019-06-07T02:13:18.818Z,4.80
2019-06-07T02:15:46.484Z,4.40
2019-06-07T02:18:14.086Z,4.97
2019-06-07T02:20:41.781Z,9.03
2019-06-07T02:23:09.364Z,5.03
2019-06-07T02:25:46.599Z,3.33
2019-06-07T02:28:36.969Z,6.73
2019-06-07T02:30:46.112Z,4.73
2019-06-07T02:33:05.632Z,6.90
2019-06-07T02:35:39.942Z,6.90
2019-06-07T02:38:02.841Z,4.43
2019-06-07T02:40:36.061Z,5.97
2019-06-07T02:43:00.017Z,8.70
2019-06-07T02:45:35.503Z,7.43
2019-06-07T02:47:57.262Z,8.50
2019-06-07T02:50:26.329Z,9.47
2019-06-07T02:52:54.456Z,4.87
2019-06-07T02:55:24.876Z,6.00
2019-06-07T02:57:51.663Z,2.80
2019-06-07T03:01:00.567Z,3.70
2019-06-07T03:03:12.919Z,4.47
2019-06-07T03:05:41.764Z,8.57
2019-06-07T03:08:09.539Z,6.53
2019-06-07T03:10:41.583Z,4.67
2019-06-07T03:13:06.748Z,4.50
2019-06-07T03:15:44.660Z,6.70
2019-06-07T03:18:13.546Z,5.27
2019-06-07T03:20:41.252Z,4.47
2019-06-07T03:23:09.019Z,7.87
2019-06-07T03:25:37.740Z,2.90
2019-06-07T03:28:06.452Z,4.57
2019-06-07T03:30:42.873Z,2.87
2019-06-07T03:33:03.559Z,3.10
2019-06-07T03:35:33.064Z,4.53
2019-06-07T03:38:00.790Z,5.80
2019-06-07T03:40:29.109Z,7.33
2019-06-07T03:42:56.864Z,5.57
2019-06-07T03:45:24.748Z,4.33
2019-06-07T03:47:52.584Z,5.77
2019-06-07T03:50:20.342Z,3.70
2019-06-07T03:52:48.064Z,10.27
2019-06-07T03:55:15.749Z,7.67
2019-06-07T04:00:14.104Z,3.20
2019-06-07T04:02:42.392Z,5.77
2019-06-07T04:05:10.048Z,4.37
2019-06-07T04:07:43.789Z,6.53
2019-06-07T04:10:08.722Z,8.20
2019-06-07T04:12:41.218Z,6.93
2019-06-07T04:15:05.945Z,4.60
2019-06-07T04:17:35.998Z,5.20
2019-06-07T04:20:03.912Z,6.13
2019-06-07T04:22:35.706Z,3.30
2019-06-07T04:25:01.138Z,3.27
2019-06-07T04:27:28.813Z,4.67
2019-06-07T04:30:07.066Z,6.67
2019-06-07T04:32:26.030Z,6.67
2019-06-07T04:34:53.726Z,5.17
2019-06-07T04:37:21.485Z,4.73
2019-06-07T04:39:49.128Z,5.37
2019-06-07T04:42:16.897Z,4.80
2019-06-07T04:44:44.865Z,3.50
2019-06-07T04:47:12.615Z,7.80
2019-06-07T04:49:43.516Z,7.80
2019-06-07T04:52:09.808Z,8.03
2019-06-07T04:54:38.582Z,8.43
2019-06-07T04:57:07.005Z,3.53
2019-06-07T05:00:10.457Z,3.47
2019-06-07T05:02:04.193Z,3.10
2019-06-07T05:04:33.175Z,4.03
2019-06-07T05:07:01.417Z,5.73
2019-06-07T05:09:30.127Z,4.87
2019-06-07T05:11:57.947Z,5.43
2019-06-07T05:14:25.637Z,8.27
2019-06-07T05:16:53.336Z,5.83
2019-06-07T05:19:21.100Z,5.60
2019-06-07T05:22:02.712Z,6.20
2019-06-07T05:24:18.314Z,5.45
2019-06-07T05:26:46.052Z,3.85
2019-06-07T05:29:13.743Z,7.25
2019-06-07T05:31:44.970Z,5.42
2019-06-07T05:34:10.920Z,7.28
2019-06-07T05:36:39.812Z,5.65
2019-06-07T05:39:08.157Z,7.67
2019-06-07T05:41:37.105Z,4.70
2019-06-07T05:44:12.531Z,9.68
2019-06-07T05:46:39.184Z,6.37
2019-06-07T05:49:04.582Z,8.88
2019-06-07T05:51:32.349Z,4.92
2019-06-07T05:54:00.005Z,3.58
2019-06-07T05:56:27.734Z,8.68
2019-06-07T05:58:55.433Z,5.33
2019-06-07T06:01:42.766Z,7.83
2019-06-07T06:03:52.709Z,8.78
2019-06-07T06:06:20.391Z,7.65
2019-06-07T06:08:49.467Z,4.60
2019-06-07T06:11:17.286Z,4.85
2019-06-07T06:14:05.191Z,3.85
2019-06-07T06:16:14.482Z,11.85
2019-06-07T06:18:45.815Z,5.67
2019-06-07T06:21:19.426Z,4.30
2019-06-07T06:23:42.900Z,6.97
2019-06-07T06:26:10.664Z,9.05
2019-06-07T06:28:38.397Z,7.15
2019-06-07T06:31:06.039Z,7.47
2019-06-07T06:33:34.957Z,10.65
2019-06-07T06:36:02.927Z,7.80
2019-06-07T06:38:31.390Z,3.17
2019-06-07T06:41:14.218Z,4.85
2019-06-07T06:43:28.719Z,3.67
2019-06-07T06:45:56.433Z,5.80
2019-06-07T06:48:24.192Z,2.40
2019-06-07T06:50:52.698Z,5.85
2019-06-07T06:53:20.640Z,5.10
2019-06-07T06:55:51.177Z,5.20
2019-06-07T06:58:17.842Z,6.97
2019-06-07T07:00:59.368Z,6.12
2019-06-07T07:05:49.772Z,8.95
2019-06-07T07:08:15.970Z,6.92
2019-06-07T07:10:45.738Z,11.65
2019-06-07T07:13:13.602Z,4.37
2019-06-07T07:15:42.809Z,5.22
2019-06-07T07:18:10.920Z,4.90
2019-06-07T07:20:38.594Z,2.92
2019-06-07T07:23:06.306Z,8.80
2019-06-07T07:25:34.067Z,5.70
2019-06-07T07:28:01.805Z,2.67
2019-06-07T07:30:44.774Z,3.10
2019-06-07T07:33:12.597Z,4.40
2019-06-07T07:36:03.386Z,2.20
2019-06-07T07:38:10.714Z,3.87
2019-06-07T07:43:07.908Z,2.23
2019-06-07T07:45:35.595Z,1.97
2019-06-07T07:48:15.416Z,2.43
2019-06-07T07:50:32.892Z,3.37
2019-06-07T07:53:00.910Z,2.47
2019-06-07T07:55:28.604Z,2.43
2019-06-07T07:58:01.510Z,4.07
2019-06-07T08:00:50.264Z,1.27
2019-06-07T08:02:58.667Z,1.40
2019-06-07T08:05:41.608Z,1.00
2019-06-07T08:08:00.185Z,2.37
2019-06-07T08:10:23.881Z,2.37
2019-06-07T08:13:18.177Z,0.90
2019-06-07T08:15:21.104Z,1.30
2019-06-07T08:17:51.596Z,3.20
2019-06-07T08:20:18.496Z,1.30
2019-06-07T08:22:47.377Z,1.43
2019-06-07T08:25:15.528Z,1.20
2019-06-07T08:27:43.236Z,2.03
2019-06-07T08:30:46.497Z,1.20
2019-06-07T08:32:40.596Z,0.70
2019-06-07T08:35:08.322Z,1.37
2019-06-07T08:38:14.266Z,1.00
2019-06-07T08:40:06.027Z,1.10
2019-06-07T08:42:37.346Z,1.90
2019-06-07T08:45:05.716Z,1.97
2019-06-07T08:47:33.334Z,3.47
2019-06-07T08:50:07.244Z,1.43
2019-06-07T08:52:30.666Z,3.43
2019-06-07T08:55:04.954Z,3.43
2019-06-07T08:57:31.593Z,1.80
2019-06-07T09:00:06.506Z,1.70
2019-06-07T09:02:29.392Z,4.87
2019-06-07T09:05:03.178Z,3.37
2019-06-07T09:07:26.597Z,9.40
2019-06-07T09:10:03.610Z,2.57
2019-06-07T09:12:23.859Z,1.40
2019-06-07T09:15:06.310Z,1.57
2019-06-07T09:17:21.306Z,2.03
2019-06-07T09:19:49.036Z,1.40
2019-06-07T09:22:16.854Z,4.63
2019-06-07T09:24:44.624Z,1.23
2019-06-07T09:27:12.384Z,1.43
2019-06-07T09:29:40.106Z,3.00
2019-06-07T09:32:12.003Z,1.57
2019-06-07T09:34:37.280Z,1.00
2019-06-07T09:37:55.666Z,2.13
2019-06-07T09:39:34.555Z,2.23
2019-06-07T09:42:08.435Z,2.50
2019-06-07T09:44:32.680Z,2.97
2019-06-07T09:47:19.169Z,1.83
2019-06-07T09:49:32.907Z,1.47
2019-06-07T09:52:02.673Z,1.80
2019-06-07T09:55:03.810Z,4.13
2019-06-07T09:57:00.351Z,4.00
2019-06-07T09:59:28.305Z,1.87
2019-06-07T10:01:59.091Z,2.30
2019-06-07T10:04:31.108Z,3.53
2019-06-07T10:06:55.369Z,2.93
2019-06-07T10:11:52.707Z,3.77
2019-06-07T10:14:20.729Z,3.07
2019-06-07T10:16:48.924Z,2.97
2019-06-07T10:19:16.713Z,5.10
2019-06-07T10:21:44.417Z,3.13
2019-06-07T10:24:12.096Z,1.77
2019-06-07T10:26:39.833Z,1.30
2019-06-07T10:29:09.075Z,1.93
2019-06-07T10:31:37.021Z,4.40
2019-06-07T10:34:06.485Z,3.57
2019-06-07T10:36:34.308Z,2.53
2019-06-07T10:39:02.899Z,1.67
2019-06-07T10:41:30.734Z,2.30
2019-06-07T10:43:58.425Z,2.10
2019-06-07T10:46:26.154Z,1.67
2019-06-07T10:48:53.929Z,4.33
2019-06-07T10:51:21.636Z,4.00
2019-06-07T10:53:49.349Z,4.40
2019-06-07T10:56:17.068Z,5.33
2019-06-07T10:58:44.783Z,3.40
2019-06-07T11:01:14.208Z,2.40
2019-06-07T11:03:42.433Z,2.00
2019-06-07T11:06:10.209Z,3.17
2019-06-07T11:08:37.866Z,2.53
2019-06-07T11:11:06.026Z,2.17
2019-06-07T11:13:33.785Z,1.40
2019-06-07T11:16:01.474Z,1.53
2019-06-07T11:18:29.231Z,1.70
2019-06-07T11:20:56.930Z,2.83
2019-06-07T11:23:24.622Z,4.20
2019-06-07T11:25:52.316Z,2.00
2019-06-07T11:28:20.042Z,2.67
2019-06-07T11:30:47.769Z,7.93
2019-06-07T11:33:16.453Z,2.73
2019-06-07T11:35:44.258Z,4.20
2019-06-07T11:38:12.624Z,6.00
2019-06-07T11:40:40.405Z,4.07
2019-06-07T11:43:08.566Z,2.57
2019-06-07T11:45:36.753Z,1.40
2019-06-07T11:48:04.545Z,1.17
2019-06-07T11:50:32.243Z,4.50
2019-06-07T11:52:59.946Z,3.13
2019-06-07T11:55:27.669Z,1.53
2019-06-07T11:57:55.465Z,3.90
2019-06-07T12:00:23.197Z,1.40
2019-06-07T12:02:50.901Z,2.30
2019-06-07T12:05:20.333Z,2.33
2019-06-07T12:07:48.097Z,6.80
2019-06-07T12:10:20.454Z,3.47
2019-06-07T12:12:45.292Z,2.27
2019-06-07T12:15:13.022Z,1.53
2019-06-07T12:17:40.767Z,1.80
2019-06-07T12:20:10.295Z,8.63
2019-06-07T12:22:38.051Z,5.67
2019-06-07T12:25:06.036Z,7.63
2019-06-07T12:27:33.845Z,20.53
2019-06-07T12:30:09.147Z,2.37
2019-06-07T12:32:31.181Z,2.37
2019-06-07T12:34:58.837Z,2.93
2019-06-07T12:37:42.553Z,4.53
2019-06-07T12:39:56.073Z,4.70
2019-06-07T12:42:23.756Z,2.80
2019-06-07T12:44:51.468Z,1.17
2019-06-07T12:47:19.157Z,1.17
2019-06-07T12:49:46.877Z,2.90
2019-06-07T12:52:17.460Z,2.77
2019-06-07T12:54:44.093Z,1.60
2019-06-07T12:57:11.788Z,1.40
2019-06-07T12:59:39.509Z,9.37
2019-06-07T13:02:07.195Z,8.40
2019-06-07T13:04:34.962Z,2.63
2019-06-07T13:07:02.666Z,4.70
2019-06-07T13:09:30.385Z,2.20
2019-06-07T13:11:58.109Z,4.57
2019-06-07T13:14:25.831Z,8.20
2019-06-07T13:16:53.529Z,0.87
2019-06-07T13:19:22.127Z,2.03
2019-06-07T13:21:49.968Z,1.70
2019-06-07T13:24:18.928Z,2.47
2019-06-07T13:26:47.526Z,4.23
2019-06-07T13:29:16.415Z,1.13
2019-06-07T13:31:44.242Z,1.03
2019-06-07T13:34:11.963Z,0.97
2019-06-07T13:36:39.671Z,2.03
2019-06-07T13:39:07.384Z,4.67
2019-06-07T13:41:42.498Z,1.60
2019-06-07T13:44:04.513Z,1.70
2019-06-07T13:46:32.217Z,0.80
2019-06-07T13:48:59.968Z,0.80
2019-06-07T13:51:28.880Z,1.60
2019-06-07T13:53:56.774Z,2.03
2019-06-07T13:56:24.450Z,2.20
2019-06-07T13:58:52.172Z,0.87
2019-06-07T14:01:20.303Z,2.30
2019-06-07T14:03:48.066Z,2.00
2019-06-07T14:06:15.768Z,6.73
2019-06-07T14:08:43.441Z,1.67
2019-06-07T14:11:11.183Z,3.37
2019-06-07T14:13:39.014Z,4.37
2019-06-07T14:16:06.877Z,2.00
2019-06-07T14:18:34.656Z,1.13
2019-06-07T14:21:02.484Z,1.30
2019-06-07T14:23:46.140Z,3.43
2019-06-07T14:25:59.989Z,0.80
2019-06-07T14:28:31.786Z,4.80
2019-06-07T14:30:57.303Z,1.13
2019-06-07T14:33:27.943Z,2.10
2019-06-07T14:35:54.496Z,2.53
2019-06-07T14:38:23.100Z,1.30
2019-06-07T14:40:50.851Z,1.67
2019-06-07T14:43:20.461Z,3.13
2019-06-07T14:46:03.403Z,1.23
2019-06-07T14:48:32.640Z,1.43
2019-06-07T14:51:00.505Z,1.03
2019-06-07T14:53:28.708Z,1.50
2019-06-07T14:55:56.843Z,3.53
2019-06-07T14:58:24.968Z,2.47
2019-06-07T15:00:52.926Z,0.90
2019-06-07T15:03:20.652Z,1.57
2019-06-07T15:05:48.353Z,1.33
2019-06-07T15:08:16.150Z,1.05
2019-06-07T15:10:43.877Z,0.90
2019-06-07T15:13:11.597Z,2.10
2019-06-07T15:15:39.312Z,1.40
2019-06-07T15:18:07.064Z,4.47
2019-06-07T15:20:36.389Z,2.97
2019-06-07T15:23:04.285Z,1.37
2019-06-07T15:25:33.131Z,2.37
2019-06-07T15:28:01.005Z,4.20
2019-06-07T15:30:31.684Z,3.30
2019-06-07T15:33:00.327Z,1.98
2019-06-07T15:35:28.125Z,1.57
2019-06-07T15:37:55.878Z,1.17
2019-06-07T15:40:23.600Z,2.63
2019-06-07T15:42:53.267Z,3.23
2019-06-07T15:45:20.752Z,6.30
2019-06-07T15:47:48.538Z,1.77
2019-06-07T15:50:16.229Z,2.57
2019-06-07T15:52:43.963Z,3.43
2019-06-07T15:55:12.994Z,4.03
2019-06-07T15:57:42.230Z,2.93
2019-06-07T16:00:10.386Z,3.23
2019-06-07T16:02:39.631Z,4.03
2019-06-07T16:05:08.291Z,3.57
2019-06-07T16:07:38.194Z,1.73
2019-06-07T16:10:06.197Z,3.87
2019-06-07T16:12:34.572Z,3.97
2019-06-07T16:15:02.438Z,5.40
2019-06-07T16:17:30.160Z,3.03
2019-06-07T16:19:57.878Z,3.57
2019-06-07T16:22:25.601Z,4.70
2019-06-07T16:24:53.324Z,6.40
2019-06-07T16:27:21.130Z,6.50
2019-06-07T16:29:48.852Z,2.10
2019-06-07T16:32:16.574Z,7.73
2019-06-07T16:34:45.876Z,3.97
2019-06-07T16:37:13.729Z,4.63
2019-06-07T16:39:42.285Z,4.30
2019-06-07T16:42:10.160Z,4.30
2019-06-07T16:44:38.777Z,7.57
2019-06-07T16:47:06.548Z,6.47
2019-06-07T16:49:34.258Z,8.23
2019-06-07T16:52:02.021Z,5.00
2019-06-07T16:54:29.792Z,3.93
2019-06-07T16:56:57.498Z,6.83
2019-06-07T16:59:25.209Z,8.83
2019-06-07T17:01:52.990Z,12.30
2019-06-07T17:04:20.704Z,5.07
2019-06-07T17:06:48.561Z,5.17
2019-06-07T17:09:16.467Z,5.90
2019-06-07T17:11:44.371Z,4.80
2019-06-07T17:14:12.214Z,5.27
2019-06-07T17:16:40.895Z,7.80
2019-06-07T17:19:08.657Z,4.33
2019-06-07T17:21:36.454Z,6.93
2019-06-07T17:24:04.164Z,12.20
2019-06-07T17:26:31.877Z,4.57
2019-06-07T17:28:59.588Z,7.53
2019-06-07T17:31:27.361Z,9.07
2019-06-07T17:33:55.081Z,7.20
2019-06-07T17:36:22.805Z,4.03
2019-06-07T17:38:50.711Z,7.00
2019-06-07T17:41:18.498Z,7.07
2019-06-07T17:43:55.694Z,9.53
2019-06-07T17:46:15.761Z,5.83
2019-06-07T17:48:43.558Z,5.17
2019-06-07T17:51:11.337Z,6.67
2019-06-07T17:53:39.054Z,6.03
2019-06-07T17:56:06.842Z,5.10
2019-06-07T17:58:34.555Z,5.47
2019-06-07T18:01:02.263Z,9.43
2019-06-07T18:03:30.063Z,6.07
2019-06-07T18:05:57.796Z,6.60
2019-06-07T18:08:25.529Z,7.73
2019-06-07T18:10:54.123Z,8.70
2019-06-07T18:13:21.978Z,8.57
2019-06-07T18:15:55.004Z,7.07
2019-06-07T18:18:19.258Z,4.73
2019-06-07T18:20:47.334Z,8.60
2019-06-07T18:23:15.358Z,10.40
2019-06-07T18:25:43.070Z,8.10
2019-06-07T18:28:10.924Z,14.30
2019-06-07T18:30:38.619Z,5.10
2019-06-07T18:33:07.386Z,7.90
2019-06-07T18:35:35.131Z,8.07
2019-06-07T18:38:02.934Z,5.43
2019-06-07T18:40:30.670Z,7.37
2019-06-07T18:42:59.525Z,6.50
2019-06-07T18:45:27.285Z,10.20
2019-06-07T18:47:55.777Z,7.80
2019-06-07T18:50:23.561Z,7.07
2019-06-07T18:52:52.678Z,6.73
2019-06-07T18:55:20.467Z,11.20
2019-06-07T18:57:48.446Z,8.83
2019-06-07T19:00:16.205Z,7.67
2019-06-07T19:02:43.993Z,8.40
2019-06-07T19:05:11.697Z,9.30
2019-06-07T19:07:39.504Z,6.57
2019-06-07T19:10:07.185Z,10.47
2019-06-07T19:12:34.957Z,11.33
2019-06-07T19:15:03.465Z,8.93
2019-06-07T19:17:31.250Z,10.53
2019-06-07T19:20:00.511Z,15.00
2019-06-07T19:22:28.529Z,15.87
2019-06-07T19:24:56.896Z,7.77
2019-06-07T19:27:24.969Z,9.07
2019-06-07T19:29:52.766Z,6.63
2019-06-07T19:32:20.425Z,7.90
2019-06-07T19:34:48.155Z,7.70
2019-06-07T19:37:15.881Z,9.33
2019-06-07T19:39:43.698Z,10.67
2019-06-07T19:42:11.434Z,6.50
2019-06-07T19:44:52.087Z,12.43
2019-06-07T19:47:08.670Z,7.23
2019-06-07T19:49:36.387Z,10.50
2019-06-07T19:52:04.213Z,19.20
2019-06-07T19:54:32.024Z,12.13
2019-06-07T19:56:59.769Z,14.60
2019-06-07T19:59:27.482Z,11.90
2019-06-07T20:01:55.767Z,9.83
2019-06-07T20:04:23.616Z,15.00
2019-06-07T20:06:51.322Z,8.93
2019-06-07T20:09:19.043Z,11.13
2019-06-07T20:11:46.741Z,7.67
2019-06-07T20:14:14.462Z,12.80
2019-06-07T20:16:42.170Z,10.95
2019-06-07T20:19:09.904Z,9.30
2019-06-07T20:21:37.602Z,13.48
2019-06-07T20:24:24.815Z,7.83
2019-06-07T20:26:37.517Z,8.13
2019-06-07T20:29:05.723Z,11.73
2019-06-07T20:31:33.478Z,10.87
2019-06-07T20:34:01.233Z,6.03
2019-06-07T20:36:29.023Z,12.33
2019-06-07T20:38:57.882Z,11.73
2019-06-07T20:41:25.656Z,11.40
2019-06-07T20:43:53.396Z,13.17
2019-06-07T20:46:21.118Z,8.30
2019-06-07T20:48:48.824Z,18.07
2019-06-07T20:51:16.576Z,7.97
2019-06-07T20:53:44.290Z,7.87
2019-06-07T20:56:12.006Z,6.40
2019-06-07T20:58:39.702Z,11.17
2019-06-07T21:01:07.546Z,8.37
2019-06-07T21:03:36.294Z,10.10
2019-06-07T21:06:05.442Z,11.73
2019-06-07T21:08:33.377Z,6.40
2019-06-07T21:11:01.647Z,14.13
2019-06-07T21:13:29.401Z,13.30
2019-06-07T21:15:57.149Z,9.40
2019-06-07T21:18:24.895Z,14.03
2019-06-07T21:20:52.674Z,11.50
2019-06-07T21:23:20.450Z,12.73
2019-06-07T21:25:48.233Z,8.17
2019-06-07T21:28:15.981Z,11.63
2019-06-07T21:30:43.728Z,14.90
2019-06-07T21:33:11.946Z,19.57
2019-06-07T21:35:40.193Z,11.73
2019-06-07T21:38:07.941Z,13.60
2019-06-07T21:40:35.654Z,12.50
2019-06-07T21:43:04.257Z,8.00
2019-06-07T21:45:31.949Z,10.80
2019-06-07T21:47:59.686Z,12.43
2019-06-07T21:50:27.409Z,13.03
2019-06-07T21:52:55.166Z,11.60
2019-06-07T21:55:22.877Z,7.80
2019-06-07T21:57:50.673Z,13.17
2019-06-07T22:00:22.307Z,11.93
2019-06-07T22:02:50.061Z,12.30
2019-06-07T22:05:17.822Z,13.18
2019-06-07T22:07:45.598Z,9.60
2019-06-07T22:10:14.441Z,11.60
2019-06-07T22:12:42.465Z,10.63
2019-06-07T22:15:29.137Z,15.43
2019-06-07T22:17:39.882Z,9.40
2019-06-07T22:20:08.610Z,18.17
2019-06-07T22:22:36.586Z,9.73
2019-06-07T22:25:04.797Z,9.43
2019-06-07T22:27:32.837Z,12.13
2019-06-07T22:30:00.529Z,8.10
2019-06-07T22:32:28.348Z,10.47
2019-06-07T22:34:56.058Z,9.67
2019-06-07T22:37:23.852Z,12.17
2019-06-07T22:39:51.639Z,12.50
2019-06-07T22:42:19.454Z,12.33
2019-06-07T22:44:47.178Z,9.90
2019-06-07T22:47:16.161Z,7.33
2019-06-07T22:49:46.974Z,11.33
2019-06-07T22:52:15.760Z,10.00
2019-06-07T22:54:45.252Z,15.03
2019-06-07T22:57:18.717Z,7.13
2019-06-07T22:59:46.466Z,13.73
2019-06-07T23:02:14.667Z,7.17
2019-06-07T23:04:42.515Z,6.73
2019-06-07T23:07:10.834Z,11.70
2019-06-07T23:09:38.691Z,12.13
2019-06-07T23:12:06.417Z,12.20
2019-06-07T23:14:34.176Z,10.93
2019-06-07T23:17:01.895Z,15.17
2019-06-07T23:19:29.602Z,13.73
2019-06-07T23:21:57.322Z,10.20
2019-06-07T23:24:25.417Z,5.33
2019-06-07T23:26:53.197Z,7.13
2019-06-07T23:29:20.932Z,11.47
2019-06-07T23:31:48.625Z,11.13
2019-06-07T23:34:16.821Z,8.07
2019-06-07T23:36:44.589Z,14.00
2019-06-07T23:39:13.164Z,14.13
2019-06-07T23:41:41.161Z,8.90
2019-06-07T23:44:09.010Z,10.17
2019-06-07T23:46:36.860Z,8.67
2019-06-07T23:49:04.780Z,5.70
2019-06-07T23:51:32.525Z,11.53
2019-06-07T23:54:00.562Z,10.33
2019-06-07T23:56:28.285Z,17.13
2019-06-07T23:58:56.078Z,11.30
